Nearby METAR Reports

Here are local weather reports from nearby weather stations and airports.

KHFD - Hartford/Brainar, Connecticut, USA
Distance from station: NE 5mi, 8km
Updated: Fri, 05/27/22 10:53am EDT
Overcast
Overcast
 Wind from SSW
Wind: SSW 8 mph , 13 km/h
Temperature: 73°F , 23°C
Dew Point: 64°F , 18°C
Humidity: 74%
Barometer: 29.94 inHg , 1013.9 hPa
Clouds: Overcast
Visibility: 10 miles , 16 km
Cloud details: Overcast 1500 ft
2022/05/27 14:53 KHFD 271453Z 21007KT 10SM OVC015 23/18 A2994 RMK AO2 SLP139 T02280183 56013
KMMK - Meriden, Connecticut, USA
Distance from station: SSW 13mi, 21km
Updated: Fri, 05/27/22 10:53am EDT
Overcast
Overcast
 Wind from S
Wind: S 9 mph , 15 km/h
Temperature: 66°F , 19°C
Dew Point: 64°F , 18°C
Humidity: 94%
Barometer: 29.96 inHg , 1014.6 hPa
Clouds: Overcast
Visibility: 8 miles , 13 km
Cloud details: Overcast 500 ft
2022/05/27 14:53 KMMK 271453Z AUTO 18008KT 8SM OVC005 19/18 A2996 RMK AO2 SLP142 T01940178 58009
 
KBDL - Windsor Locks, Connecticut, USA
Distance from station: N 17mi, 28km
Updated: Fri, 05/27/22 10:27am EDT
Overcast
Overcast
 Wind from SSW
Wind: SSW 14 mph , 22 km/h
Temperature: 73°F , 23°C
Dew Point: 64°F , 18°C
Humidity: 74%
Barometer: 29.94 inHg , 1013.9 hPa
Clouds: Overcast
Visibility: 10 miles , 16 km
Cloud details: Few Clouds 900 ft
Mostly cloudy 1600 ft
Overcast 2900 ft
2022/05/27 14:27 KBDL 271427Z 20012KT 10SM FEW009 BKN016 OVC029 23/18 A2994 RMK AO2 T02330183
KSNC - Chester, Connecticut, USA
Distance from station: SSE 24mi, 38km
Updated: Fri, 05/27/22 10:55am EDT
Fog, Overcast
Fog, Overcast
 Wind from S
Wind: S 6 mph , 9 km/h
Temperature: 66°F , 19°C
Dew Point: 66°F , 19°C
Humidity: 100%
Barometer: 29.97 inHg , 1014.9 hPa
Summary: Fog
Clouds: Overcast
Visibility: 1/4 mile , 0.4 km
Cloud details: Overcast 100 ft
2022/05/27 14:55 KSNC 271455Z AUTO 19005KT 1/4SM FG OVC001 19/19 A2997 RMK AO2
 
KOXC - Oxford/Waterbury, Connecticut, USA
Distance from station: SW 26mi, 42km
Updated: Fri, 05/27/22 10:51am EDT
Overcast
Overcast
 Wind from S
Wind: S 7 mph , 11 km/h
Temperature: 66°F , 19°C
Dew Point: 66°F , 19°C
Humidity: 100%
Barometer: 29.97 inHg , 1014.9 hPa
Clouds: Overcast
Visibility: 10 miles , 16 km
Cloud details: Overcast 500 ft
2022/05/27 14:51 KOXC 271451Z 18006KT 10SM OVC005 19/19 A2997 RMK AO2 CIG 002V010 SLP159 60000 T01890189 58010
KIJD - Willimantic, Connecticut, USA
Distance from station: E 28mi, 45km
Updated: Fri, 05/27/22 10:52am EDT
Overcast
Overcast
 Wind from SSW
Wind: SSW 9 mph , 15 km/h
Temperature: 70°F , 21°C
Dew Point: 64°F , 18°C
Humidity: 83%
Barometer: 29.96 inHg , 1014.6 hPa
Clouds: Overcast
Visibility: 10 miles , 16 km
Cloud details: Overcast 900 ft
2022/05/27 14:52 KIJD 271452Z AUTO 20008KT 10SM OVC009 21/18 A2996 RMK AO2 SLP144 T02110183 56013
 
KHVN - New Haven/Tweed, Connecticut, USA
Distance from station: SSW 30mi, 48km
Updated: Fri, 05/27/22 11:01am EDT
Mist, Overcast
Mist, Overcast
 Wind from SSE
Wind: SSE 3 mph , 6 km/h
Temperature: 66°F , 19°C
Dew Point: 66°F , 19°C
Humidity: 100%
Barometer: 29.96 inHg , 1014.6 hPa
Summary: Mist
Clouds: Overcast
Visibility: 3 miles , 5 km
Cloud details: Overcast 300 ft
2022/05/27 15:01 KHVN 271501Z 16003KT 3SM BR OVC003 19/19 A2996 RMK AO2 T01940189
KBAF - Westfield, Massachusetts, USA
Distance from station: 0 33mi, 54km
Updated: Fri, 05/27/22 10:53am EDT
Overcast
Overcast
 Wind from S
Wind: S 12 mph , 19 km/h
Temperature: 73°F , 23°C
Dew Point: 64°F , 18°C
Humidity: 74%
Barometer: 29.92 inHg , 1013.2 hPa
Clouds: Overcast
Visibility: 10 miles , 16 km
Cloud details: Overcast 1900 ft
2022/05/27 14:53 KBAF 271453Z 18010KT 10SM OVC019 23/18 A2992 RMK AO2 SLP131 T02280178 58008
 
KCEF - Chicopee/Westove, Massachusetts, USA
Distance from station: NNE 37mi, 60km
Updated: Fri, 05/27/22 10:56am EDT
Overcast
Overcast
 Wind from SSW
Wind: SSW 15 mph , 24 km/h
Temperature: 73°F , 23°C
Dew Point: 64°F , 18°C
Humidity: 74%
Barometer: 29.92 inHg , 1013.2 hPa
Clouds: Overcast
Visibility: 10 miles , 16 km
Cloud details: Overcast 1400 ft
2022/05/27 14:56 KCEF 271456Z 21013KT 10SM OVC014 23/18 A2992 RMK AO2A SLP137 T02340183 57014
KBDR - Bridgeport, Connecticut, USA
Distance from station: SSW 42mi, 67km
Updated: Fri, 05/27/22 10:55am EDT
Mist, Overcast
Mist, Overcast
 Wind from varies
Wind: varies 3 mph , 6 km/h
Temperature: 66°F , 19°C
Dew Point: 64°F , 18°C
Humidity: 94%
Barometer: 29.95 inHg , 1014.2 hPa
Summary: Mist
Clouds: Overcast
Visibility: 3 miles , 5 km
Cloud details: Mostly cloudy 300 ft
Overcast 2100 ft
2022/05/27 14:55 KBDR 271455Z VRB03KT 3SM BR BKN003 OVC021 19/18 A2995 RMK AO2 T01940183
 
KGON - Groton/New Londo, Connecticut, USA
Distance from station: SE 42mi, 68km
Updated: Fri, 05/27/22 10:56am EDT
Mist, Overcast
Mist, Overcast
 Wind from SSW
Wind: SSW 6 mph , 9 km/h
Temperature: 63°F , 17°C
Dew Point: 61°F , 16°C
Humidity: 94%
Barometer: 29.98 inHg , 1015.2 hPa
Summary: Mist
Clouds: Overcast
Visibility: 5 miles , 8 km
Cloud details: Overcast 200 ft
2022/05/27 14:56 KGON 271456Z 21005KT 5SM BR OVC002 17/16 A2998 RMK AO2 SLP151 T01720161 56004
KDXR - Danbury, Connecticut, USA
Distance from station: WSW 45mi, 73km
Updated: Fri, 05/27/22 10:53am EDT
Overcast
Overcast
 Wind from SW
Wind: SW 9 mph , 15 km/h
Temperature: 72°F , 22°C
Dew Point: 64°F , 18°C
Humidity: 78%
Barometer: 29.96 inHg , 1014.6 hPa
Clouds: Overcast
Visibility: 10 miles , 16 km
Cloud details: Overcast 1100 ft
2022/05/27 14:53 KDXR 271453Z 22008KT 10SM OVC011 22/18 A2996 RMK AO2 SLP142 T02220183 56011